Hovedside
METAR-TAF:

METAR-TAF

Lufthavner :

Visby lufthavn

Visby, Gotland, Sverige

breddegrad: 57-40N, lengdegrad: 018-21E, høyde over havet: 51 m

Gjeldene værobservasjon

Denne rapporten ble laget for 16 minutter siden, klokken 06:20 UTC
Vind 7 kt fra Øst-sørøst
Temperatur 2°C
Luftfuktighet 100%
Trykk 1022 hPa
Sikt 10 km eller mer
ingen skyer under 1500 m og ingen bygeskyer

METAR: ESSV 150620Z 12007KT CAVOK 02/02 Q1022

Tid: 07:36 (06:36 UTC)

Varsel

Denne rapporten ble laget for 1 time og 6 minutter siden, klokken 05:30 UTC
Varsel gyldig fra 15. klokken 06 UTC til 15. klokken 15 UTC
Vind 6 kt fra Øst-sørøst
Sikt: 4000 m
dis
Blir
fra 15. klokken 06 UTC til 15. klokken 08 UTC
Sikt 10 km eller mer
ingen skyer under 1500 m og ingen bygeskyer

TAF: ESSV 150530Z 1506/1515 11006KT 4000 BR NSC BECMG 1506/1508 CAVOK

Værobservasjoner og værvarsel for over 4000 flyplasser (METAR- og TAF-rapporter).

Tilgjengelige stasjoner er representert av de røde og gule prikkene på kartet.

Hold musepekeren over prikken for å se navnet på stasjonen.

Klikk så for å se værobservasjoner og -varsler.

For å forandre kartet kan du klikke på den grønne knappen med svart kryss for å zoome inn, på den grønne knappen med strek for å zoome ut, eller på de grønne pilene for å se tilstøtende kart.


METAR-TAF: